sensor_id;sensor_type;location;lat;lon;timestamp;P1;durP1;ratioP1;P2;durP2;ratioP2
43552;SDS011;29153;42.696;23.218;2024-01-30T06:04:46;9.30;;;3.27;;
43552;SDS011;29153;42.696;23.218;2024-01-30T06:07:14;6.97;;;2.55;;
43552;SDS011;29153;42.696;23.218;2024-01-30T06:09:42;5.15;;;2.12;;
43552;SDS011;29153;42.696;23.218;2024-01-30T06:14:38;5.67;;;2.70;;
43552;SDS011;29153;42.696;23.218;2024-01-30T06:17:08;6.72;;;2.22;;
43552;SDS011;29153;42.696;23.218;2024-01-30T06:19:37;6.87;;;2.72;;
43552;SDS011;29153;42.696;23.218;2024-01-30T06:22:05;7.60;;;3.02;;
43552;SDS011;29153;42.696;23.218;2024-01-30T06:24:33;6.92;;;2.62;;
43552;SDS011;29153;42.696;23.218;2024-01-30T06:27:00;7.05;;;2.90;;
43552;SDS011;29153;42.696;23.218;2024-01-30T06:29:28;10.90;;;3.87;;
43552;SDS011;29153;42.696;23.218;2024-01-30T06:31:55;6.28;;;2.98;;
43552;SDS011;29153;42.696;23.218;2024-01-30T06:34:23;9.08;;;2.92;;
43552;SDS011;29153;42.696;23.218;2024-01-30T06:36:52;9.03;;;2.80;;
43552;SDS011;29153;42.696;23.218;2024-01-30T06:39:19;13.88;;;4.75;;
43552;SDS011;29153;42.696;23.218;2024-01-30T06:41:47;14.18;;;5.17;;
43552;SDS011;29153;42.696;23.218;2024-01-30T06:44:14;21.45;;;5.83;;
43552;SDS011;29153;42.696;23.218;2024-01-30T06:46:42;11.53;;;2.52;;
43552;SDS011;29153;42.696;23.218;2024-01-30T06:49:10;11.50;;;3.83;;
43552;SDS011;29153;42.696;23.218;2024-01-30T06:51:37;16.27;;;4.95;;
43552;SDS011;29153;42.696;23.218;2024-01-30T06:54:05;11.38;;;4.15;;
43552;SDS011;29153;42.696;23.218;2024-01-30T06:56:32;11.22;;;3.65;;
43552;SDS011;29153;42.696;23.218;2024-01-30T06:59:01;16.57;;;6.70;;
43552;SDS011;29153;42.696;23.218;2024-01-30T07:01:29;12.23;;;4.47;;
43552;SDS011;29153;42.696;23.218;2024-01-30T07:03:57;13.90;;;4.25;;
43552;SDS011;29153;42.696;23.218;2024-01-30T07:06:24;13.40;;;5.15;;
43552;SDS011;29153;42.696;23.218;2024-01-30T07:08:52;13.53;;;4.87;;
43552;SDS011;29153;42.696;23.218;2024-01-30T07:11:20;14.90;;;6.35;;
43552;SDS011;29153;42.696;23.218;2024-01-30T07:13:55;13.60;;;5.05;;
43552;SDS011;29153;42.696;23.218;2024-01-30T07:16:18;8.98;;;3.67;;
43552;SDS011;29153;42.696;23.218;2024-01-30T07:18:45;9.55;;;3.72;;
43552;SDS011;29153;42.696;23.218;2024-01-30T07:21:13;13.35;;;3.95;;
43552;SDS011;29153;42.696;23.218;2024-01-30T07:23:40;6.15;;;2.25;;
43552;SDS011;29153;42.696;23.218;2024-01-30T07:26:09;9.83;;;4.25;;
43552;SDS011;29153;42.696;23.218;2024-01-30T07:28:36;14.35;;;4.80;;
43552;SDS011;29153;42.696;23.218;2024-01-30T07:31:04;8.05;;;2.83;;
43552;SDS011;29153;42.696;23.218;2024-01-30T07:33:32;7.70;;;3.40;;
43552;SDS011;29153;42.696;23.218;2024-01-30T07:35:59;13.72;;;4.17;;
43552;SDS011;29153;42.696;23.218;2024-01-30T07:38:27;9.65;;;4.05;;
43552;SDS011;29153;42.696;23.218;2024-01-30T07:40:55;15.72;;;5.05;;
43552;SDS011;29153;42.696;23.218;2024-01-30T07:43:23;11.90;;;4.83;;
43552;SDS011;29153;42.696;23.218;2024-01-30T07:45:50;9.08;;;4.40;;
43552;SDS011;29153;42.696;23.218;2024-01-30T07:48:18;12.55;;;3.27;;
43552;SDS011;29153;42.696;23.218;2024-01-30T07:50:47;8.60;;;3.37;;
43552;SDS011;29153;42.696;23.218;2024-01-30T07:53:15;13.53;;;4.37;;
43552;SDS011;29153;42.696;23.218;2024-01-30T07:55:42;10.30;;;4.08;;
43552;SDS011;29153;42.696;23.218;2024-01-30T07:58:11;15.53;;;7.45;;
43552;SDS011;29153;42.696;23.218;2024-01-30T08:00:39;9.75;;;3.83;;
43552;SDS011;29153;42.696;23.218;2024-01-30T08:03:07;5.90;;;1.90;;
43552;SDS011;29153;42.696;23.218;2024-01-30T08:05:34;8.25;;;2.87;;
43552;SDS011;29153;42.696;23.218;2024-01-30T08:08:02;10.60;;;4.97;;
43552;SDS011;29153;42.696;23.218;2024-01-30T08:10:30;7.22;;;2.98;;
43552;SDS011;29153;42.696;23.218;2024-01-30T08:12:57;5.28;;;2.15;;
43552;SDS011;29153;42.696;23.218;2024-01-30T08:15:25;5.83;;;2.50;;
43552;SDS011;29153;42.696;23.218;2024-01-30T08:17:52;6.42;;;2.87;;
43552;SDS011;29153;42.696;23.218;2024-01-30T08:20:21;5.58;;;2.90;;
43552;SDS011;29153;42.696;23.218;2024-01-30T08:22:49;10.38;;;4.85;;
43552;SDS011;29153;42.696;23.218;2024-01-30T08:25:17;8.55;;;3.33;;
43552;SDS011;29153;42.696;23.218;2024-01-30T08:27:45;6.92;;;3.12;;
43552;SDS011;29153;42.696;23.218;2024-01-30T08:30:12;7.90;;;3.20;;
43552;SDS011;29153;42.696;23.218;2024-01-30T08:32:45;7.25;;;3.10;;
43552;SDS011;29153;42.696;23.218;2024-01-30T08:35:09;10.50;;;3.87;;
43552;SDS011;29153;42.696;23.218;2024-01-30T08:37:38;11.05;;;3.80;;
43552;SDS011;29153;42.696;23.218;2024-01-30T08:40:06;10.10;;;3.92;;
43552;SDS011;29153;42.696;23.218;2024-01-30T08:42:34;9.23;;;3.72;;
43552;SDS011;29153;42.696;23.218;2024-01-30T08:45:02;8.45;;;3.08;;
43552;SDS011;29153;42.696;23.218;2024-01-30T08:49:58;8.93;;;3.12;;
43552;SDS011;29153;42.696;23.218;2024-01-30T08:52:31;9.95;;;3.15;;
43552;SDS011;29153;42.696;23.218;2024-01-30T08:54:55;5.03;;;2.70;;
43552;SDS011;29153;42.696;23.218;2024-01-30T08:57:23;7.10;;;3.25;;
43552;SDS011;29153;42.696;23.218;2024-01-30T08:59:54;7.20;;;2.75;;
43552;SDS011;29153;42.696;23.218;2024-01-30T09:02:21;4.58;;;1.98;;
43552;SDS011;29153;42.696;23.218;2024-01-30T09:04:49;5.30;;;2.42;;
43552;SDS011;29153;42.696;23.218;2024-01-30T09:07:17;6.47;;;2.40;;
43552;SDS011;29153;42.696;23.218;2024-01-30T09:09:44;7.97;;;2.90;;
43552;SDS011;29153;42.696;23.218;2024-01-30T09:12:15;7.22;;;3.60;;
43552;SDS011;29153;42.696;23.218;2024-01-30T09:14:44;8.58;;;2.75;;
43552;SDS011;29153;42.696;23.218;2024-01-30T09:17:11;7.20;;;3.25;;
43552;SDS011;29153;42.696;23.218;2024-01-30T09:19:40;6.35;;;2.77;;
43552;SDS011;29153;42.696;23.218;2024-01-30T09:22:09;4.72;;;2.20;;
43552;SDS011;29153;42.696;23.218;2024-01-30T09:24:36;7.78;;;3.00;;
43552;SDS011;29153;42.696;23.218;2024-01-30T09:27:04;5.50;;;2.58;;
43552;SDS011;29153;42.696;23.218;2024-01-30T09:29:32;7.17;;;2.67;;
43552;SDS011;29153;42.696;23.218;2024-01-30T09:32:01;5.55;;;2.58;;
43552;SDS011;29153;42.696;23.218;2024-01-30T09:34:28;7.72;;;3.45;;
43552;SDS011;29153;42.696;23.218;2024-01-30T09:36:56;6.05;;;2.55;;
43552;SDS011;29153;42.696;23.218;2024-01-30T09:39:25;7.08;;;2.90;;
43552;SDS011;29153;42.696;23.218;2024-01-30T09:42:00;6.97;;;2.62;;
43552;SDS011;29153;42.696;23.218;2024-01-30T09:44:24;6.40;;;1.67;;
43552;SDS011;29153;42.696;23.218;2024-01-30T09:46:54;7.87;;;3.22;;
43552;SDS011;29153;42.696;23.218;2024-01-30T09:49:24;5.15;;;2.60;;
43552;SDS011;29153;42.696;23.218;2024-01-30T09:51:53;9.78;;;3.83;;
43552;SDS011;29153;42.696;23.218;2024-01-30T09:54:22;7.62;;;2.83;;
43552;SDS011;29153;42.696;23.218;2024-01-30T09:56:50;7.58;;;2.90;;
43552;SDS011;29153;42.696;23.218;2024-01-30T09:59:18;8.00;;;2.85;;
43552;SDS011;29153;42.696;23.218;2024-01-30T10:01:46;6.03;;;2.08;;
43552;SDS011;29153;42.696;23.218;2024-01-30T10:04:13;5.90;;;2.22;;
43552;SDS011;29153;42.696;23.218;2024-01-30T10:06:42;6.42;;;2.75;;
43552;SDS011;29153;42.696;23.218;2024-01-30T10:09:09;6.33;;;2.58;;
43552;SDS011;29153;42.696;23.218;2024-01-30T10:11:37;15.30;;;4.65;;
43552;SDS011;29153;42.696;23.218;2024-01-30T10:14:05;12.53;;;4.10;;
43552;SDS011;29153;42.696;23.218;2024-01-30T10:16:34;5.40;;;1.87;;
43552;SDS011;29153;42.696;23.218;2024-01-30T10:19:01;20.45;;;5.80;;
43552;SDS011;29153;42.696;23.218;2024-01-30T10:21:32;4.10;;;1.85;;
43552;SDS011;29153;42.696;23.218;2024-01-30T10:24:00;9.03;;;2.40;;
43552;SDS011;29153;42.696;23.218;2024-01-30T10:26:27;7.78;;;2.83;;
43552;SDS011;29153;42.696;23.218;2024-01-30T10:28:56;8.18;;;3.50;;
43552;SDS011;29153;42.696;23.218;2024-01-30T10:31:24;10.05;;;4.00;;
43552;SDS011;29153;42.696;23.218;2024-01-30T10:33:51;9.70;;;3.22;;
43552;SDS011;29153;42.696;23.218;2024-01-30T10:36:19;6.80;;;2.83;;
43552;SDS011;29153;42.696;23.218;2024-01-30T10:38:54;31.40;;;10.43;;
43552;SDS011;29153;42.696;23.218;2024-01-30T10:41:23;9.35;;;3.87;;
43552;SDS011;29153;42.696;23.218;2024-01-30T10:43:54;17.60;;;6.53;;
43552;SDS011;29153;42.696;23.218;2024-01-30T10:46:21;12.37;;;5.67;;
43552;SDS011;29153;42.696;23.218;2024-01-30T10:49:00;6.17;;;2.42;;
43552;SDS011;29153;42.696;23.218;2024-01-30T10:51:28;8.25;;;3.00;;
43552;SDS011;29153;42.696;23.218;2024-01-30T10:54:03;6.55;;;2.83;;
43552;SDS011;29153;42.696;23.218;2024-01-30T10:56:33;6.30;;;2.70;;
43552;SDS011;29153;42.696;23.218;2024-01-30T10:59:01;3.67;;;1.62;;
43552;SDS011;29153;42.696;23.218;2024-01-30T11:01:30;12.33;;;4.40;;
43552;SDS011;29153;42.696;23.218;2024-01-30T11:03:58;20.82;;;9.88;;
43552;SDS011;29153;42.696;23.218;2024-01-30T11:06:25;14.93;;;5.53;;
43552;SDS011;29153;42.696;23.218;2024-01-30T11:09:03;8.90;;;3.70;;
43552;SDS011;29153;42.696;23.218;2024-01-30T11:14:25;25.77;;;8.45;;
43552;SDS011;29153;42.696;23.218;2024-01-30T11:17:01;61.60;;;20.45;;
43552;SDS011;29153;42.696;23.218;2024-01-30T11:19:25;19.02;;;8.28;;
43552;SDS011;29153;42.696;23.218;2024-01-30T11:21:53;6.42;;;2.87;;
43552;SDS011;29153;42.696;23.218;2024-01-30T11:24:22;4.95;;;2.15;;
43552;SDS011;29153;42.696;23.218;2024-01-30T11:26:59;5.20;;;2.30;;
43552;SDS011;29153;42.696;23.218;2024-01-30T11:29:25;8.63;;;3.70;;
43552;SDS011;29153;42.696;23.218;2024-01-30T11:31:56;7.05;;;3.12;;
43552;SDS011;29153;42.696;23.218;2024-01-30T11:36:52;6.97;;;2.55;;
43552;SDS011;29153;42.696;23.218;2024-01-30T11:39:28;8.95;;;2.60;;
43552;SDS011;29153;42.696;23.218;2024-01-30T11:41:57;8.25;;;2.60;;
43552;SDS011;29153;42.696;23.218;2024-01-30T11:46:53;5.08;;;2.02;;
43552;SDS011;29153;42.696;23.218;2024-01-30T11:49:20;7.83;;;3.22;;
43552;SDS011;29153;42.696;23.218;2024-01-30T11:51:49;6.83;;;2.70;;
43552;SDS011;29153;42.696;23.218;2024-01-30T11:54:18;10.30;;;3.42;;
43552;SDS011;29153;42.696;23.218;2024-01-30T11:56:46;17.67;;;5.62;;
43552;SDS011;29153;42.696;23.218;2024-01-30T11:59:14;7.33;;;2.62;;
43552;SDS011;29153;42.696;23.218;2024-01-30T12:01:41;9.75;;;3.70;;
43552;SDS011;29153;42.696;23.218;2024-01-30T12:04:09;10.85;;;3.42;;
43552;SDS011;29153;42.696;23.218;2024-01-30T12:06:37;8.53;;;3.20;;
43552;SDS011;29153;42.696;23.218;2024-01-30T12:09:05;7.15;;;2.72;;
43552;SDS011;29153;42.696;23.218;2024-01-30T12:11:57;7.45;;;2.83;;
43552;SDS011;29153;42.696;23.218;2024-01-30T12:14:16;9.73;;;2.58;;
43552;SDS011;29153;42.696;23.218;2024-01-30T12:16:48;5.25;;;2.47;;
43552;SDS011;29153;42.696;23.218;2024-01-30T12:19:23;8.15;;;2.95;;
43552;SDS011;29153;42.696;23.218;2024-01-30T12:21:57;6.12;;;2.40;;
43552;SDS011;29153;42.696;23.218;2024-01-30T12:24:25;6.80;;;2.75;;
43552;SDS011;29153;42.696;23.218;2024-01-30T12:26:59;12.95;;;4.37;;
43552;SDS011;29153;42.696;23.218;2024-01-30T12:29:26;10.82;;;3.98;;
43552;SDS011;29153;42.696;23.218;2024-01-30T12:31:55;6.22;;;2.55;;
43552;SDS011;29153;42.696;23.218;2024-01-30T12:34:24;8.55;;;3.40;;
43552;SDS011;29153;42.696;23.218;2024-01-30T12:36:52;8.88;;;3.27;;
43552;SDS011;29153;42.696;23.218;2024-01-30T12:39:20;6.72;;;2.80;;
43552;SDS011;29153;42.696;23.218;2024-01-30T12:41:48;6.92;;;2.90;;
43552;SDS011;29153;42.696;23.218;2024-01-30T12:44:15;10.50;;;3.62;;
43552;SDS011;29153;42.696;23.218;2024-01-30T12:46:43;6.92;;;3.37;;
43552;SDS011;29153;42.696;23.218;2024-01-30T12:49:12;6.05;;;2.72;;
43552;SDS011;29153;42.696;23.218;2024-01-30T12:51:41;7.33;;;2.85;;
43552;SDS011;29153;42.696;23.218;2024-01-30T12:54:09;9.15;;;3.80;;
43552;SDS011;29153;42.696;23.218;2024-01-30T12:56:36;5.40;;;2.77;;
43552;SDS011;29153;42.696;23.218;2024-01-30T12:59:04;8.18;;;3.52;;
43552;SDS011;29153;42.696;23.218;2024-01-30T13:01:31;7.30;;;2.87;;
43552;SDS011;29153;42.696;23.218;2024-01-30T13:03:59;7.12;;;3.45;;
43552;SDS011;29153;42.696;23.218;2024-01-30T13:06:26;7.55;;;3.62;;
43552;SDS011;29153;42.696;23.218;2024-01-30T13:08:54;5.95;;;2.47;;
43552;SDS011;29153;42.696;23.218;2024-01-30T13:11:22;6.17;;;2.37;;
43552;SDS011;29153;42.696;23.218;2024-01-30T13:13:51;16.87;;;6.87;;
43552;SDS011;29153;42.696;23.218;2024-01-30T13:16:19;9.38;;;4.67;;
43552;SDS011;29153;42.696;23.218;2024-01-30T13:18:47;11.15;;;6.55;;
43552;SDS011;29153;42.696;23.218;2024-01-30T13:21:15;16.37;;;4.78;;
43552;SDS011;29153;42.696;23.218;2024-01-30T13:23:42;6.05;;;2.45;;
43552;SDS011;29153;42.696;23.218;2024-01-30T13:26:10;8.88;;;3.95;;
43552;SDS011;29153;42.696;23.218;2024-01-30T13:28:39;8.08;;;3.62;;
43552;SDS011;29153;42.696;23.218;2024-01-30T13:31:08;11.80;;;4.17;;
43552;SDS011;29153;42.696;23.218;2024-01-30T13:33:35;10.90;;;4.25;;
43552;SDS011;29153;42.696;23.218;2024-01-30T13:36:03;7.47;;;3.05;;
43552;SDS011;29153;42.696;23.218;2024-01-30T13:38:31;12.03;;;3.77;;
43552;SDS011;29153;42.696;23.218;2024-01-30T13:40:59;7.87;;;2.98;;
43552;SDS011;29153;42.696;23.218;2024-01-30T13:43:26;7.87;;;3.65;;
43552;SDS011;29153;42.696;23.218;2024-01-30T13:45:54;7.83;;;3.35;;
43552;SDS011;29153;42.696;23.218;2024-01-30T13:48:21;8.13;;;4.30;;
43552;SDS011;29153;42.696;23.218;2024-01-30T13:50:50;12.05;;;3.95;;
43552;SDS011;29153;42.696;23.218;2024-01-30T13:53:18;9.75;;;3.60;;
43552;SDS011;29153;42.696;23.218;2024-01-30T13:55:46;9.80;;;3.90;;
43552;SDS011;29153;42.696;23.218;2024-01-30T13:58:14;30.55;;;11.15;;
43552;SDS011;29153;42.696;23.218;2024-01-30T14:00:42;14.18;;;6.12;;
43552;SDS011;29153;42.696;23.218;2024-01-30T14:03:10;21.40;;;8.70;;
43552;SDS011;29153;42.696;23.218;2024-01-30T14:05:37;19.80;;;7.65;;
43552;SDS011;29153;42.696;23.218;2024-01-30T14:08:06;13.35;;;5.30;;
43552;SDS011;29153;42.696;23.218;2024-01-30T14:10:34;17.48;;;8.33;;
43552;SDS011;29153;42.696;23.218;2024-01-30T14:13:01;10.90;;;4.55;;
43552;SDS011;29153;42.696;23.218;2024-01-30T14:15:29;10.25;;;4.10;;
43552;SDS011;29153;42.696;23.218;2024-01-30T14:17:57;27.48;;;8.98;;
43552;SDS011;29153;42.696;23.218;2024-01-30T14:20:24;22.58;;;9.73;;
43552;SDS011;29153;42.696;23.218;2024-01-30T14:22:52;15.30;;;6.90;;
43552;SDS011;29153;42.696;23.218;2024-01-30T14:27:48;29.67;;;10.15;;
43552;SDS011;29153;42.696;23.218;2024-01-30T14:30:15;16.75;;;6.42;;
43552;SDS011;29153;42.696;23.218;2024-01-30T14:32:43;48.17;;;14.90;;
43552;SDS011;29153;42.696;23.218;2024-01-30T14:35:12;9.63;;;3.92;;
43552;SDS011;29153;42.696;23.218;2024-01-30T14:37:39;18.67;;;5.53;;
43552;SDS011;29153;42.696;23.218;2024-01-30T14:40:07;41.60;;;14.15;;
43552;SDS011;29153;42.696;23.218;2024-01-30T14:42:35;25.55;;;8.25;;
43552;SDS011;29153;42.696;23.218;2024-01-30T14:45:03;20.15;;;7.67;;
43552;SDS011;29153;42.696;23.218;2024-01-30T14:50:00;22.50;;;8.45;;
43552;SDS011;29153;42.696;23.218;2024-01-30T14:52:28;24.72;;;8.10;;
43552;SDS011;29153;42.696;23.218;2024-01-30T14:54:57;29.40;;;8.13;;
43552;SDS011;29153;42.696;23.218;2024-01-30T14:57:25;21.00;;;6.97;;
43552;SDS011;29153;42.696;23.218;2024-01-30T14:59:53;30.12;;;9.50;;
43552;SDS011;29153;42.696;23.218;2024-01-30T15:02:20;39.90;;;10.60;;
43552;SDS011;29153;42.696;23.218;2024-01-30T15:04:48;43.90;;;11.30;;
43552;SDS011;29153;42.696;23.218;2024-01-30T15:07:15;42.20;;;10.78;;
43552;SDS011;29153;42.696;23.218;2024-01-30T15:09:43;34.80;;;10.65;;
43552;SDS011;29153;42.696;23.218;2024-01-30T15:12:10;40.03;;;11.85;;
43552;SDS011;29153;42.696;23.218;2024-01-30T15:14:38;23.95;;;8.85;;
43552;SDS011;29153;42.696;23.218;2024-01-30T15:17:06;24.43;;;8.70;;
43552;SDS011;29153;42.696;23.218;2024-01-30T15:19:33;45.43;;;14.47;;
43552;SDS011;29153;42.696;23.218;2024-01-30T15:22:01;44.80;;;13.40;;
43552;SDS011;29153;42.696;23.218;2024-01-30T15:24:28;30.88;;;10.50;;
43552;SDS011;29153;42.696;23.218;2024-01-30T15:26:56;25.50;;;8.98;;
43552;SDS011;29153;42.696;23.218;2024-01-30T15:29:23;21.05;;;8.10;;
43552;SDS011;29153;42.696;23.218;2024-01-30T15:31:51;22.20;;;7.15;;
43552;SDS011;29153;42.696;23.218;2024-01-30T15:34:18;25.72;;;10.25;;
43552;SDS011;29153;42.696;23.218;2024-01-30T15:36:46;18.40;;;7.80;;
43552;SDS011;29153;42.696;23.218;2024-01-30T15:39:14;15.75;;;6.40;;
43552;SDS011;29153;42.696;23.218;2024-01-30T15:41:43;11.30;;;5.15;;
43552;SDS011;29153;42.696;23.218;2024-01-30T15:44:10;12.43;;;5.62;;
43552;SDS011;29153;42.696;23.218;2024-01-30T15:46:38;14.90;;;5.22;;
43552;SDS011;29153;42.696;23.218;2024-01-30T15:49:05;15.70;;;6.35;;
43552;SDS011;29153;42.696;23.218;2024-01-30T15:51:33;12.55;;;5.90;;
43552;SDS011;29153;42.696;23.218;2024-01-30T15:54:00;14.33;;;6.10;;
43552;SDS011;29153;42.696;23.218;2024-01-30T15:56:28;14.53;;;6.55;;
43552;SDS011;29153;42.696;23.218;2024-01-30T15:58:56;13.22;;;6.00;;
43552;SDS011;29153;42.696;23.218;2024-01-30T16:01:23;13.53;;;6.10;;
43552;SDS011;29153;42.696;23.218;2024-01-30T16:03:51;34.38;;;12.30;;
43552;SDS011;29153;42.696;23.218;2024-01-30T16:06:18;61.45;;;18.60;;
43552;SDS011;29153;42.696;23.218;2024-01-30T16:08:46;90.75;;;27.27;;
43552;SDS011;29153;42.696;23.218;2024-01-30T16:11:15;49.73;;;18.23;;
43552;SDS011;29153;42.696;23.218;2024-01-30T16:13:44;33.05;;;13.00;;
43552;SDS011;29153;42.696;23.218;2024-01-30T16:16:11;21.17;;;9.38;;
43552;SDS011;29153;42.696;23.218;2024-01-30T16:18:39;24.20;;;10.00;;
43552;SDS011;29153;42.696;23.218;2024-01-30T16:21:07;17.15;;;8.63;;
43552;SDS011;29153;42.696;23.218;2024-01-30T16:23:34;16.30;;;8.25;;
43552;SDS011;29153;42.696;23.218;2024-01-30T16:26:02;19.30;;;8.95;;
43552;SDS011;29153;42.696;23.218;2024-01-30T16:28:30;24.20;;;10.38;;
43552;SDS011;29153;42.696;23.218;2024-01-30T16:30:59;24.07;;;10.43;;
43552;SDS011;29153;42.696;23.218;2024-01-30T16:33:27;24.05;;;12.03;;
43552;SDS011;29153;42.696;23.218;2024-01-30T16:38:23;24.92;;;8.63;;
43552;SDS011;29153;42.696;23.218;2024-01-30T16:40:51;21.30;;;9.33;;
43552;SDS011;29153;42.696;23.218;2024-01-30T16:43:18;35.10;;;13.18;;
43552;SDS011;29153;42.696;23.218;2024-01-30T16:45:46;29.00;;;14.68;;
43552;SDS011;29153;42.696;23.218;2024-01-30T16:48:14;26.62;;;10.80;;
43552;SDS011;29153;42.696;23.218;2024-01-30T16:50:43;32.88;;;13.83;;
43552;SDS011;29153;42.696;23.218;2024-01-30T16:53:11;23.83;;;11.10;;
43552;SDS011;29153;42.696;23.218;2024-01-30T16:55:39;32.95;;;14.58;;
43552;SDS011;29153;42.696;23.218;2024-01-30T16:58:06;21.82;;;10.28;;
43552;SDS011;29153;42.696;23.218;2024-01-30T17:00:35;18.92;;;9.68;;
43552;SDS011;29153;42.696;23.218;2024-01-30T17:03:02;19.50;;;8.90;;
43552;SDS011;29153;42.696;23.218;2024-01-30T17:05:30;20.95;;;9.30;;
43552;SDS011;29153;42.696;23.218;2024-01-30T17:07:58;20.68;;;10.13;;
43552;SDS011;29153;42.696;23.218;2024-01-30T17:10:26;23.65;;;11.22;;
43552;SDS011;29153;42.696;23.218;2024-01-30T17:12:54;22.00;;;10.10;;
43552;SDS011;29153;42.696;23.218;2024-01-30T17:15:21;27.45;;;11.70;;
43552;SDS011;29153;42.696;23.218;2024-01-30T17:17:49;21.97;;;10.70;;
43552;SDS011;29153;42.696;23.218;2024-01-30T17:20:18;22.87;;;9.10;;
43552;SDS011;29153;42.696;23.218;2024-01-30T17:22:46;21.15;;;8.83;;
43552;SDS011;29153;42.696;23.218;2024-01-30T17:25:13;18.02;;;8.45;;
43552;SDS011;29153;42.696;23.218;2024-01-30T17:27:41;21.17;;;8.90;;
43552;SDS011;29153;42.696;23.218;2024-01-30T17:30:11;24.72;;;10.55;;
43552;SDS011;29153;42.696;23.218;2024-01-30T17:32:39;17.60;;;8.83;;
43552;SDS011;29153;42.696;23.218;2024-01-30T17:35:07;17.67;;;8.13;;
43552;SDS011;29153;42.696;23.218;2024-01-30T17:37:35;17.07;;;8.40;;
43552;SDS011;29153;42.696;23.218;2024-01-30T17:40:04;13.53;;;6.67;;
43552;SDS011;29153;42.696;23.218;2024-01-30T17:42:33;15.88;;;7.55;;
43552;SDS011;29153;42.696;23.218;2024-01-30T17:45:04;14.80;;;6.90;;
43552;SDS011;29153;42.696;23.218;2024-01-30T17:47:32;15.63;;;7.25;;
43552;SDS011;29153;42.696;23.218;2024-01-30T17:50:00;19.52;;;7.83;;
43552;SDS011;29153;42.696;23.218;2024-01-30T17:52:28;20.70;;;10.00;;
43552;SDS011;29153;42.696;23.218;2024-01-30T17:54:56;23.90;;;11.10;;
43552;SDS011;29153;42.696;23.218;2024-01-30T17:57:23;19.35;;;9.10;;
43552;SDS011;29153;42.696;23.218;2024-01-30T17:59:51;24.57;;;12.23;;
43552;SDS011;29153;42.696;23.218;2024-01-30T18:02:18;22.90;;;9.60;;
43552;SDS011;29153;42.696;23.218;2024-01-30T18:04:46;18.12;;;8.33;;
43552;SDS011;29153;42.696;23.218;2024-01-30T18:07:13;20.68;;;8.70;;
43552;SDS011;29153;42.696;23.218;2024-01-30T18:09:41;26.52;;;12.23;;
43552;SDS011;29153;42.696;23.218;2024-01-30T18:12:08;22.37;;;11.95;;
43552;SDS011;29153;42.696;23.218;2024-01-30T18:14:37;23.83;;;10.43;;
43552;SDS011;29153;42.696;23.218;2024-01-30T18:17:05;19.45;;;7.75;;
43552;SDS011;29153;42.696;23.218;2024-01-30T18:19:32;24.30;;;12.47;;
43552;SDS011;29153;42.696;23.218;2024-01-30T18:22:00;31.27;;;10.00;;
43552;SDS011;29153;42.696;23.218;2024-01-30T18:24:27;24.30;;;10.82;;
43552;SDS011;29153;42.696;23.218;2024-01-30T18:26:55;23.47;;;9.30;;
43552;SDS011;29153;42.696;23.218;2024-01-30T18:29:23;17.17;;;7.40;;
43552;SDS011;29153;42.696;23.218;2024-01-30T18:31:51;16.65;;;7.72;;
43552;SDS011;29153;42.696;23.218;2024-01-30T18:34:19;15.45;;;7.30;;
43552;SDS011;29153;42.696;23.218;2024-01-30T18:36:46;16.87;;;7.37;;
43552;SDS011;29153;42.696;23.218;2024-01-30T18:39:14;18.15;;;7.40;;
43552;SDS011;29153;42.696;23.218;2024-01-30T18:41:41;17.95;;;7.47;;
43552;SDS011;29153;42.696;23.218;2024-01-30T18:44:09;19.48;;;8.58;;
43552;SDS011;29153;42.696;23.218;2024-01-30T18:46:36;19.40;;;8.38;;
43552;SDS011;29153;42.696;23.218;2024-01-30T18:49:04;17.37;;;7.67;;
43552;SDS011;29153;42.696;23.218;2024-01-30T18:51:31;14.87;;;7.87;;
43552;SDS011;29153;42.696;23.218;2024-01-30T18:53:59;13.90;;;6.37;;
43552;SDS011;29153;42.696;23.218;2024-01-30T18:56:26;17.70;;;8.25;;
43552;SDS011;29153;42.696;23.218;2024-01-30T18:58:54;14.25;;;6.42;;
43552;SDS011;29153;42.696;23.218;2024-01-30T19:01:21;17.48;;;8.35;;
43552;SDS011;29153;42.696;23.218;2024-01-30T19:03:49;27.62;;;12.37;;
43552;SDS011;29153;42.696;23.218;2024-01-30T19:06:17;20.85;;;8.63;;
43552;SDS011;29153;42.696;23.218;2024-01-30T19:08:44;17.05;;;6.72;;
43552;SDS011;29153;42.696;23.218;2024-01-30T19:11:18;21.05;;;8.48;;
43552;SDS011;29153;42.696;23.218;2024-01-30T19:13:46;13.40;;;5.75;;
43552;SDS011;29153;42.696;23.218;2024-01-30T19:16:14;20.20;;;8.10;;
43552;SDS011;29153;42.696;23.218;2024-01-30T19:18:41;54.83;;;20.90;;
43552;SDS011;29153;42.696;23.218;2024-01-30T19:21:09;31.42;;;14.03;;
43552;SDS011;29153;42.696;23.218;2024-01-30T19:23:37;25.50;;;11.15;;
43552;SDS011;29153;42.696;23.218;2024-01-30T19:26:04;30.95;;;13.65;;
43552;SDS011;29153;42.696;23.218;2024-01-30T19:28:33;14.07;;;6.85;;
43552;SDS011;29153;42.696;23.218;2024-01-30T19:31:02;74.40;;;30.45;;
43552;SDS011;29153;42.696;23.218;2024-01-30T19:33:30;82.80;;;30.45;;
43552;SDS011;29153;42.696;23.218;2024-01-30T19:35:59;33.20;;;13.45;;
43552;SDS011;29153;42.696;23.218;2024-01-30T19:38:26;16.48;;;8.45;;
43552;SDS011;29153;42.696;23.218;2024-01-30T19:40:54;45.45;;;17.80;;
43552;SDS011;29153;42.696;23.218;2024-01-30T19:43:22;123.85;;;47.67;;
43552;SDS011;29153;42.696;23.218;2024-01-30T19:45:50;340.50;;;105.55;;
43552;SDS011;29153;42.696;23.218;2024-01-30T19:48:19;115.22;;;40.38;;
43552;SDS011;29153;42.696;23.218;2024-01-30T19:50:47;120.25;;;35.92;;
43552;SDS011;29153;42.696;23.218;2024-01-30T19:53:14;137.60;;;46.42;;
43552;SDS011;29153;42.696;23.218;2024-01-30T19:55:43;74.17;;;26.95;;
43552;SDS011;29153;42.696;23.218;2024-01-30T19:58:11;28.57;;;10.25;;
43552;SDS011;29153;42.696;23.218;2024-01-30T20:00:39;41.45;;;15.10;;
43552;SDS011;29153;42.696;23.218;2024-01-30T20:03:06;92.22;;;33.60;;
43552;SDS011;29153;42.696;23.218;2024-01-30T20:05:34;53.25;;;20.65;;
43552;SDS011;29153;42.696;23.218;2024-01-30T20:08:02;22.20;;;8.33;;
43552;SDS011;29153;42.696;23.218;2024-01-30T20:10:30;34.35;;;11.70;;
43552;SDS011;29153;42.696;23.218;2024-01-30T20:12:57;26.65;;;11.57;;
43552;SDS011;29153;42.696;23.218;2024-01-30T20:15:25;24.92;;;9.05;;
43552;SDS011;29153;42.696;23.218;2024-01-30T20:17:54;33.98;;;13.88;;
43552;SDS011;29153;42.696;23.218;2024-01-30T20:20:22;50.48;;;17.50;;
43552;SDS011;29153;42.696;23.218;2024-01-30T20:22:49;31.50;;;11.48;;
43552;SDS011;29153;42.696;23.218;2024-01-30T20:25:17;23.60;;;9.80;;
43552;SDS011;29153;42.696;23.218;2024-01-30T20:27:45;33.63;;;14.90;;
43552;SDS011;29153;42.696;23.218;2024-01-30T20:30:13;33.20;;;14.03;;
43552;SDS011;29153;42.696;23.218;2024-01-30T20:32:42;15.08;;;6.53;;
43552;SDS011;29153;42.696;23.218;2024-01-30T20:35:09;18.77;;;9.10;;
43552;SDS011;29153;42.696;23.218;2024-01-30T20:37:37;23.03;;;11.93;;
43552;SDS011;29153;42.696;23.218;2024-01-30T20:40:05;12.63;;;5.65;;
43552;SDS011;29153;42.696;23.218;2024-01-30T20:42:33;10.48;;;5.20;;
43552;SDS011;29153;42.696;23.218;2024-01-30T20:45:04;17.73;;;8.63;;
43552;SDS011;29153;42.696;23.218;2024-01-30T20:47:31;14.05;;;6.65;;
43552;SDS011;29153;42.696;23.218;2024-01-30T20:49:59;26.82;;;13.38;;
43552;SDS011;29153;42.696;23.218;2024-01-30T20:52:27;21.45;;;10.40;;